sensor_id;sensor_type;location;lat;lon;timestamp;temperature;humidity
80250;DHT22;69561;37.974;23.708;2023-07-20T00:01:13;31.90;36.30
80250;DHT22;69561;37.974;23.708;2023-07-20T00:03:39;31.90;36.10
80250;DHT22;69561;37.974;23.708;2023-07-20T00:06:05;31.90;36.30
80250;DHT22;69561;37.974;23.708;2023-07-20T00:08:31;31.90;36.30
80250;DHT22;69561;37.974;23.708;2023-07-20T00:10:56;31.80;36.10
80250;DHT22;69561;37.974;23.708;2023-07-20T00:13:22;31.90;36.20
80250;DHT22;69561;37.974;23.708;2023-07-20T00:15:48;31.80;36.20
80250;DHT22;69561;37.974;23.708;2023-07-20T00:18:14;31.90;36.10
80250;DHT22;69561;37.974;23.708;2023-07-20T00:20:40;31.90;36.20
80250;DHT22;69561;37.974;23.708;2023-07-20T00:23:06;31.90;36.30
80250;DHT22;69561;37.974;23.708;2023-07-20T00:25:32;31.80;36.30
80250;DHT22;69561;37.974;23.708;2023-07-20T00:27:58;31.80;36.30
80250;DHT22;69561;37.974;23.708;2023-07-20T00:30:24;31.80;36.30
80250;DHT22;69561;37.974;23.708;2023-07-20T00:32:50;31.80;36.40
80250;DHT22;69561;37.974;23.708;2023-07-20T00:35:16;31.80;36.40
80250;DHT22;69561;37.974;23.708;2023-07-20T00:37:42;31.80;36.40
80250;DHT22;69561;37.974;23.708;2023-07-20T00:40:07;31.80;36.40
80250;DHT22;69561;37.974;23.708;2023-07-20T00:42:33;31.80;36.40
80250;DHT22;69561;37.974;23.708;2023-07-20T00:44:59;31.80;36.30
80250;DHT22;69561;37.974;23.708;2023-07-20T00:47:27;31.80;36.10
80250;DHT22;69561;37.974;23.708;2023-07-20T00:49:53;31.80;36.30
80250;DHT22;69561;37.974;23.708;2023-07-20T00:52:21;31.80;36.10
80250;DHT22;69561;37.974;23.708;2023-07-20T00:54:48;31.80;36.20
80250;DHT22;69561;37.974;23.708;2023-07-20T00:57:15;31.80;36.40
80250;DHT22;69561;37.974;23.708;2023-07-20T00:59:41;31.80;36.10
80250;DHT22;69561;37.974;23.708;2023-07-20T01:02:07;31.80;36.10
80250;DHT22;69561;37.974;23.708;2023-07-20T01:04:33;31.80;36.30
80250;DHT22;69561;37.974;23.708;2023-07-20T01:12:47;31.80;36.00
80250;DHT22;69561;37.974;23.708;2023-07-20T01:15:15;31.80;36.00
80250;DHT22;69561;37.974;23.708;2023-07-20T01:17:41;31.80;36.20
80250;DHT22;69561;37.974;23.708;2023-07-20T01:20:08;31.70;36.00
80250;DHT22;69561;37.974;23.708;2023-07-20T01:33:35;31.70;36.20
80250;DHT22;69561;37.974;23.708;2023-07-20T01:36:01;31.70;35.90
80250;DHT22;69561;37.974;23.708;2023-07-20T01:38:28;31.70;36.00
80250;DHT22;69561;37.974;23.708;2023-07-20T01:40:55;31.70;36.20
80250;DHT22;69561;37.974;23.708;2023-07-20T01:43:21;31.70;36.30
80250;DHT22;69561;37.974;23.708;2023-07-20T01:45:47;31.70;36.20
80250;DHT22;69561;37.974;23.708;2023-07-20T01:48:13;31.70;36.30
80250;DHT22;69561;37.974;23.708;2023-07-20T01:50:39;31.70;36.40
80250;DHT22;69561;37.974;23.708;2023-07-20T01:53:04;31.70;36.30
80250;DHT22;69561;37.974;23.708;2023-07-20T01:55:30;31.70;36.40
80250;DHT22;69561;37.974;23.708;2023-07-20T01:57:56;31.70;36.30
80250;DHT22;69561;37.974;23.708;2023-07-20T02:00:22;31.70;36.30
80250;DHT22;69561;37.974;23.708;2023-07-20T02:02:50;31.70;36.30
80250;DHT22;69561;37.974;23.708;2023-07-20T02:05:16;31.70;36.40
80250;DHT22;69561;37.974;23.708;2023-07-20T02:07:42;31.70;36.40
80250;DHT22;69561;37.974;23.708;2023-07-20T02:10:08;31.70;36.50
80250;DHT22;69561;37.974;23.708;2023-07-20T02:12:33;31.70;36.50
80250;DHT22;69561;37.974;23.708;2023-07-20T02:14:59;31.70;36.40
80250;DHT22;69561;37.974;23.708;2023-07-20T02:17:25;31.70;36.50
80250;DHT22;69561;37.974;23.708;2023-07-20T02:20:00;31.70;36.50
80250;DHT22;69561;37.974;23.708;2023-07-20T02:22:25;31.70;36.50
80250;DHT22;69561;37.974;23.708;2023-07-20T02:24:51;31.70;36.60
80250;DHT22;69561;37.974;23.708;2023-07-20T02:27:17;31.60;36.60
80250;DHT22;69561;37.974;23.708;2023-07-20T02:29:42;31.70;36.70
80250;DHT22;69561;37.974;23.708;2023-07-20T02:32:08;31.70;36.60
80250;DHT22;69561;37.974;23.708;2023-07-20T02:34:40;31.70;36.60
80250;DHT22;69561;37.974;23.708;2023-07-20T02:37:06;31.70;36.60
80250;DHT22;69561;37.974;23.708;2023-07-20T02:39:32;31.70;36.60
80250;DHT22;69561;37.974;23.708;2023-07-20T02:41:57;31.70;36.70
80250;DHT22;69561;37.974;23.708;2023-07-20T02:44:23;31.60;36.70
80250;DHT22;69561;37.974;23.708;2023-07-20T02:46:49;31.60;36.70
80250;DHT22;69561;37.974;23.708;2023-07-20T02:49:15;31.60;36.70
80250;DHT22;69561;37.974;23.708;2023-07-20T02:51:41;31.60;36.70
80250;DHT22;69561;37.974;23.708;2023-07-20T02:54:07;31.60;36.70
80250;DHT22;69561;37.974;23.708;2023-07-20T02:56:33;31.70;36.80
80250;DHT22;69561;37.974;23.708;2023-07-20T02:59:00;31.60;36.70
80250;DHT22;69561;37.974;23.708;2023-07-20T03:01:26;31.60;36.80
80250;DHT22;69561;37.974;23.708;2023-07-20T03:03:55;31.60;36.80
80250;DHT22;69561;37.974;23.708;2023-07-20T03:06:21;31.60;36.70
80250;DHT22;69561;37.974;23.708;2023-07-20T03:08:46;31.60;36.70
80250;DHT22;69561;37.974;23.708;2023-07-20T03:11:18;31.60;36.80
80250;DHT22;69561;37.974;23.708;2023-07-20T03:13:47;31.60;36.80
80250;DHT22;69561;37.974;23.708;2023-07-20T03:16:17;31.60;36.80
80250;DHT22;69561;37.974;23.708;2023-07-20T03:18:44;31.60;36.90
80250;DHT22;69561;37.974;23.708;2023-07-20T03:21:11;31.60;36.90
80250;DHT22;69561;37.974;23.708;2023-07-20T03:23:37;31.60;36.90
80250;DHT22;69561;37.974;23.708;2023-07-20T03:26:03;31.60;37.00
80250;DHT22;69561;37.974;23.708;2023-07-20T03:28:29;31.60;37.00
80250;DHT22;69561;37.974;23.708;2023-07-20T03:30:58;31.60;37.00
80250;DHT22;69561;37.974;23.708;2023-07-20T03:33:28;31.60;36.90
80250;DHT22;69561;37.974;23.708;2023-07-20T03:35:57;31.60;36.90
80250;DHT22;69561;37.974;23.708;2023-07-20T03:38:26;31.60;37.00
80250;DHT22;69561;37.974;23.708;2023-07-20T03:43:20;31.60;37.00
80250;DHT22;69561;37.974;23.708;2023-07-20T03:45:46;31.60;37.10
80250;DHT22;69561;37.974;23.708;2023-07-20T03:48:16;31.60;36.90
80250;DHT22;69561;37.974;23.708;2023-07-20T03:50:43;31.70;36.90
80250;DHT22;69561;37.974;23.708;2023-07-20T03:53:09;31.70;38.00
80250;DHT22;69561;37.974;23.708;2023-07-20T03:55:37;31.60;38.40
80250;DHT22;69561;37.974;23.708;2023-07-20T03:58:03;31.60;38.40
80250;DHT22;69561;37.974;23.708;2023-07-20T04:00:29;31.60;38.40
80250;DHT22;69561;37.974;23.708;2023-07-20T04:02:55;31.60;38.40
80250;DHT22;69561;37.974;23.708;2023-07-20T04:05:28;31.50;38.40
80250;DHT22;69561;37.974;23.708;2023-07-20T04:07:53;31.60;38.50
80250;DHT22;69561;37.974;23.708;2023-07-20T04:10:24;31.60;38.40
80250;DHT22;69561;37.974;23.708;2023-07-20T04:12:50;31.60;38.40
80250;DHT22;69561;37.974;23.708;2023-07-20T04:15:16;31.60;38.40
80250;DHT22;69561;37.974;23.708;2023-07-20T04:17:41;31.60;38.40
80250;DHT22;69561;37.974;23.708;2023-07-20T04:20:08;31.60;38.40
80250;DHT22;69561;37.974;23.708;2023-07-20T04:22:34;31.60;38.40
80250;DHT22;69561;37.974;23.708;2023-07-20T04:24:59;31.60;38.40
80250;DHT22;69561;37.974;23.708;2023-07-20T04:27:25;31.60;38.40
80250;DHT22;69561;37.974;23.708;2023-07-20T04:29:52;31.70;38.50
80250;DHT22;69561;37.974;23.708;2023-07-20T04:32:17;31.60;38.50
80250;DHT22;69561;37.974;23.708;2023-07-20T04:34:43;31.60;38.40
80250;DHT22;69561;37.974;23.708;2023-07-20T04:37:09;31.70;38.50
80250;DHT22;69561;37.974;23.708;2023-07-20T04:39:35;31.70;38.40
80250;DHT22;69561;37.974;23.708;2023-07-20T04:42:00;31.70;38.10
80250;DHT22;69561;37.974;23.708;2023-07-20T04:44:26;31.90;37.90
80250;DHT22;69561;37.974;23.708;2023-07-20T04:46:52;32.10;37.40
80250;DHT22;69561;37.974;23.708;2023-07-20T04:49:17;32.40;36.90
80250;DHT22;69561;37.974;23.708;2023-07-20T04:51:43;32.80;36.50
80250;DHT22;69561;37.974;23.708;2023-07-20T04:54:09;33.10;36.30
80250;DHT22;69561;37.974;23.708;2023-07-20T04:56:34;33.20;36.30
80250;DHT22;69561;37.974;23.708;2023-07-20T04:59:00;33.00;36.20
80250;DHT22;69561;37.974;23.708;2023-07-20T05:01:26;32.90;36.40
80250;DHT22;69561;37.974;23.708;2023-07-20T05:03:54;32.70;36.50
80250;DHT22;69561;37.974;23.708;2023-07-20T05:06:20;32.60;36.60
80250;DHT22;69561;37.974;23.708;2023-07-20T05:08:48;32.50;36.60
80250;DHT22;69561;37.974;23.708;2023-07-20T05:11:14;32.50;36.70
80250;DHT22;69561;37.974;23.708;2023-07-20T05:13:40;32.50;36.80
80250;DHT22;69561;37.974;23.708;2023-07-20T05:16:05;32.40;36.80
80250;DHT22;69561;37.974;23.708;2023-07-20T05:18:31;32.40;36.80
80250;DHT22;69561;37.974;23.708;2023-07-20T05:20:57;32.40;36.80
80250;DHT22;69561;37.974;23.708;2023-07-20T05:23:23;32.40;36.50
80250;DHT22;69561;37.974;23.708;2023-07-20T05:25:56;32.40;36.80
80250;DHT22;69561;37.974;23.708;2023-07-20T05:28:22;32.40;36.80
80250;DHT22;69561;37.974;23.708;2023-07-20T05:30:49;32.30;36.80
80250;DHT22;69561;37.974;23.708;2023-07-20T05:33:17;32.30;36.90
80250;DHT22;69561;37.974;23.708;2023-07-20T05:35:43;32.30;37.00
80250;DHT22;69561;37.974;23.708;2023-07-20T05:38:08;32.30;37.10
80250;DHT22;69561;37.974;23.708;2023-07-20T05:40:39;32.30;37.10
80250;DHT22;69561;37.974;23.708;2023-07-20T05:43:05;32.20;37.10
80250;DHT22;69561;37.974;23.708;2023-07-20T05:45:31;32.10;37.10
80250;DHT22;69561;37.974;23.708;2023-07-20T05:47:59;32.10;37.20
80250;DHT22;69561;37.974;23.708;2023-07-20T05:50:25;32.10;37.10
80250;DHT22;69561;37.974;23.708;2023-07-20T05:52:54;32.10;37.20
80250;DHT22;69561;37.974;23.708;2023-07-20T05:55:20;32.00;37.10
80250;DHT22;69561;37.974;23.708;2023-07-20T05:57:46;32.10;37.10
80250;DHT22;69561;37.974;23.708;2023-07-20T06:00:13;32.10;37.20
80250;DHT22;69561;37.974;23.708;2023-07-20T06:02:39;32.10;37.10
80250;DHT22;69561;37.974;23.708;2023-07-20T06:05:07;32.10;37.00
80250;DHT22;69561;37.974;23.708;2023-07-20T06:07:37;32.20;37.10
80250;DHT22;69561;37.974;23.708;2023-07-20T06:10:04;32.10;37.00
80250;DHT22;69561;37.974;23.708;2023-07-20T06:12:31;32.10;37.20
80250;DHT22;69561;37.974;23.708;2023-07-20T06:15:01;32.10;37.10
80250;DHT22;69561;37.974;23.708;2023-07-20T06:17:27;32.10;37.10
80250;DHT22;69561;37.974;23.708;2023-07-20T06:19:52;32.10;37.20
80250;DHT22;69561;37.974;23.708;2023-07-20T06:22:18;32.10;37.20
80250;DHT22;69561;37.974;23.708;2023-07-20T06:24:43;32.10;37.30
80250;DHT22;69561;37.974;23.708;2023-07-20T06:27:12;32.10;37.10
80250;DHT22;69561;37.974;23.708;2023-07-20T06:29:38;32.10;37.00
80250;DHT22;69561;37.974;23.708;2023-07-20T06:32:04;32.20;37.10
80250;DHT22;69561;37.974;23.708;2023-07-20T06:34:30;32.20;37.10
80250;DHT22;69561;37.974;23.708;2023-07-20T06:36:56;32.10;37.10
80250;DHT22;69561;37.974;23.708;2023-07-20T06:39:22;32.10;37.20
80250;DHT22;69561;37.974;23.708;2023-07-20T06:41:48;32.10;37.30
80250;DHT22;69561;37.974;23.708;2023-07-20T06:44:13;32.10;37.30
80250;DHT22;69561;37.974;23.708;2023-07-20T06:46:39;32.10;37.20
80250;DHT22;69561;37.974;23.708;2023-07-20T06:49:08;32.10;37.30
80250;DHT22;69561;37.974;23.708;2023-07-20T06:51:34;32.10;37.40
80250;DHT22;69561;37.974;23.708;2023-07-20T06:53:59;32.00;37.40
80250;DHT22;69561;37.974;23.708;2023-07-20T06:56:25;32.00;37.50
80250;DHT22;69561;37.974;23.708;2023-07-20T06:58:50;31.90;37.60
80250;DHT22;69561;37.974;23.708;2023-07-20T07:01:22;31.90;37.60
80250;DHT22;69561;37.974;23.708;2023-07-20T07:03:47;31.90;37.70
80250;DHT22;69561;37.974;23.708;2023-07-20T07:06:13;32.00;37.80
80250;DHT22;69561;37.974;23.708;2023-07-20T07:08:38;31.90;37.80
80250;DHT22;69561;37.974;23.708;2023-07-20T07:11:04;31.90;37.90
80250;DHT22;69561;37.974;23.708;2023-07-20T07:13:30;31.90;38.00
80250;DHT22;69561;37.974;23.708;2023-07-20T07:15:56;31.90;38.10
80250;DHT22;69561;37.974;23.708;2023-07-20T07:18:22;31.80;38.10
80250;DHT22;69561;37.974;23.708;2023-07-20T07:20:51;31.80;38.30
80250;DHT22;69561;37.974;23.708;2023-07-20T07:23:17;31.80;38.20
80250;DHT22;69561;37.974;23.708;2023-07-20T07:25:43;31.80;38.20
80250;DHT22;69561;37.974;23.708;2023-07-20T07:28:09;31.90;38.10
80250;DHT22;69561;37.974;23.708;2023-07-20T07:30:35;31.90;38.10
80250;DHT22;69561;37.974;23.708;2023-07-20T07:33:00;31.90;37.90
80250;DHT22;69561;37.974;23.708;2023-07-20T07:35:26;31.80;38.00
80250;DHT22;69561;37.974;23.708;2023-07-20T07:37:52;31.80;37.90
80250;DHT22;69561;37.974;23.708;2023-07-20T07:40:18;31.80;37.80
80250;DHT22;69561;37.974;23.708;2023-07-20T07:42:43;31.80;37.70
80250;DHT22;69561;37.974;23.708;2023-07-20T07:45:09;31.80;37.90
80250;DHT22;69561;37.974;23.708;2023-07-20T07:47:35;31.80;37.90
80250;DHT22;69561;37.974;23.708;2023-07-20T07:50:01;31.80;37.60
80250;DHT22;69561;37.974;23.708;2023-07-20T07:52:27;31.80;37.40
80250;DHT22;69561;37.974;23.708;2023-07-20T07:54:53;31.90;37.50
80250;DHT22;69561;37.974;23.708;2023-07-20T07:57:18;31.90;37.50
80250;DHT22;69561;37.974;23.708;2023-07-20T07:59:47;31.90;37.50
80250;DHT22;69561;37.974;23.708;2023-07-20T08:02:12;31.90;37.40
80250;DHT22;69561;37.974;23.708;2023-07-20T08:04:38;31.90;37.50
80250;DHT22;69561;37.974;23.708;2023-07-20T08:07:04;31.80;37.20
80250;DHT22;69561;37.974;23.708;2023-07-20T08:09:38;31.80;37.20
80250;DHT22;69561;37.974;23.708;2023-07-20T08:12:04;31.80;37.10
80250;DHT22;69561;37.974;23.708;2023-07-20T08:14:30;31.80;37.10
80250;DHT22;69561;37.974;23.708;2023-07-20T08:16:55;31.80;37.00
80250;DHT22;69561;37.974;23.708;2023-07-20T08:19:21;31.80;37.00
80250;DHT22;69561;37.974;23.708;2023-07-20T08:21:47;31.70;36.80
80250;DHT22;69561;37.974;23.708;2023-07-20T08:24:13;31.80;36.80
80250;DHT22;69561;37.974;23.708;2023-07-20T08:26:38;31.70;36.60
80250;DHT22;69561;37.974;23.708;2023-07-20T08:29:04;31.70;36.80
80250;DHT22;69561;37.974;23.708;2023-07-20T08:31:30;31.70;36.70
80250;DHT22;69561;37.974;23.708;2023-07-20T08:33:55;31.70;36.60
80250;DHT22;69561;37.974;23.708;2023-07-20T08:36:22;31.70;36.70
80250;DHT22;69561;37.974;23.708;2023-07-20T08:38:51;31.70;36.60
80250;DHT22;69561;37.974;23.708;2023-07-20T08:41:17;31.70;36.70
80250;DHT22;69561;37.974;23.708;2023-07-20T08:43:50;31.70;36.50
80250;DHT22;69561;37.974;23.708;2023-07-20T08:46:20;31.70;36.60
80250;DHT22;69561;37.974;23.708;2023-07-20T08:48:47;31.70;36.40
80250;DHT22;69561;37.974;23.708;2023-07-20T08:51:13;31.70;36.30
80250;DHT22;69561;37.974;23.708;2023-07-20T08:53:39;31.60;36.60
80250;DHT22;69561;37.974;23.708;2023-07-20T08:56:05;31.60;36.70
80250;DHT22;69561;37.974;23.708;2023-07-20T08:58:33;31.60;36.60
80250;DHT22;69561;37.974;23.708;2023-07-20T09:01:00;31.60;36.50
80250;DHT22;69561;37.974;23.708;2023-07-20T09:03:27;31.70;36.60
80250;DHT22;69561;37.974;23.708;2023-07-20T09:05:54;31.70;36.50
80250;DHT22;69561;37.974;23.708;2023-07-20T09:08:19;31.70;36.40
80250;DHT22;69561;37.974;23.708;2023-07-20T09:10:45;31.70;36.20
80250;DHT22;69561;37.974;23.708;2023-07-20T09:13:15;31.70;36.10
80250;DHT22;69561;37.974;23.708;2023-07-20T09:15:46;31.70;36.10
80250;DHT22;69561;37.974;23.708;2023-07-20T09:18:23;31.70;36.10
80250;DHT22;69561;37.974;23.708;2023-07-20T09:20:49;31.70;36.20
80250;DHT22;69561;37.974;23.708;2023-07-20T09:23:15;31.70;36.30
80250;DHT22;69561;37.974;23.708;2023-07-20T09:25:41;31.70;36.10
80250;DHT22;69561;37.974;23.708;2023-07-20T09:28:06;31.70;37.20
80250;DHT22;69561;37.974;23.708;2023-07-20T09:30:32;31.60;36.10
80250;DHT22;69561;37.974;23.708;2023-07-20T09:32:58;31.70;36.10
80250;DHT22;69561;37.974;23.708;2023-07-20T09:35:24;31.60;36.10
80250;DHT22;69561;37.974;23.708;2023-07-20T09:37:59;31.60;35.90
80250;DHT22;69561;37.974;23.708;2023-07-20T09:40:26;31.70;35.90
80250;DHT22;69561;37.974;23.708;2023-07-20T09:42:54;31.60;36.00
80250;DHT22;69561;37.974;23.708;2023-07-20T09:45:42;31.70;36.10
80250;DHT22;69561;37.974;23.708;2023-07-20T09:48:09;31.60;36.10
80250;DHT22;69561;37.974;23.708;2023-07-20T09:50:43;31.60;36.00
80250;DHT22;69561;37.974;23.708;2023-07-20T09:53:13;31.60;36.00
80250;DHT22;69561;37.974;23.708;2023-07-20T09:55:41;31.60;36.10
80250;DHT22;69561;37.974;23.708;2023-07-20T09:58:10;31.60;36.10
80250;DHT22;69561;37.974;23.708;2023-07-20T10:00:40;31.50;36.00
80250;DHT22;69561;37.974;23.708;2023-07-20T10:03:11;31.50;36.10
80250;DHT22;69561;37.974;23.708;2023-07-20T10:05:41;31.50;36.10
80250;DHT22;69561;37.974;23.708;2023-07-20T10:08:12;31.50;36.10
80250;DHT22;69561;37.974;23.708;2023-07-20T10:10:40;31.50;35.90
80250;DHT22;69561;37.974;23.708;2023-07-20T10:13:12;31.40;36.00
80250;DHT22;69561;37.974;23.708;2023-07-20T10:15:54;31.40;36.40
80250;DHT22;69561;37.974;23.708;2023-07-20T10:21:23;31.40;37.10
80250;DHT22;69561;37.974;23.708;2023-07-20T10:23:49;31.30;37.40
80250;DHT22;69561;37.974;23.708;2023-07-20T10:26:15;31.30;37.70
80250;DHT22;69561;37.974;23.708;2023-07-20T10:28:41;31.20;37.60
80250;DHT22;69561;37.974;23.708;2023-07-20T10:31:09;31.20;37.90
80250;DHT22;69561;37.974;23.708;2023-07-20T10:33:36;31.20;38.10
80250;DHT22;69561;37.974;23.708;2023-07-20T10:36:03;31.20;38.10
80250;DHT22;69561;37.974;23.708;2023-07-20T10:39:03;31.20;38.10
80250;DHT22;69561;37.974;23.708;2023-07-20T10:41:31;31.10;38.10
80250;DHT22;69561;37.974;23.708;2023-07-20T10:44:03;31.10;38.20
80250;DHT22;69561;37.974;23.708;2023-07-20T10:49:05;31.00;38.30
80250;DHT22;69561;37.974;23.708;2023-07-20T10:51:45;31.00;38.40
80250;DHT22;69561;37.974;23.708;2023-07-20T10:56:41;31.00;38.60
80250;DHT22;69561;37.974;23.708;2023-07-20T10:59:36;31.00;38.70
80250;DHT22;69561;37.974;23.708;2023-07-20T11:02:06;30.90;38.50
80250;DHT22;69561;37.974;23.708;2023-07-20T11:04:46;30.90;38.50
80250;DHT22;69561;37.974;23.708;2023-07-20T11:07:16;30.90;38.40
80250;DHT22;69561;37.974;23.708;2023-07-20T11:09:42;30.80;38.30
80250;DHT22;69561;37.974;23.708;2023-07-20T11:12:15;30.80;38.30
80250;DHT22;69561;37.974;23.708;2023-07-20T11:15:03;30.80;38.40
80250;DHT22;69561;37.974;23.708;2023-07-20T11:17:29;30.80;38.40
80250;DHT22;69561;37.974;23.708;2023-07-20T11:19:56;30.80;38.40
80250;DHT22;69561;37.974;23.708;2023-07-20T11:22:22;30.80;38.30
80250;DHT22;69561;37.974;23.708;2023-07-20T11:24:48;30.80;38.30
80250;DHT22;69561;37.974;23.708;2023-07-20T11:27:15;30.80;38.30
80250;DHT22;69561;37.974;23.708;2023-07-20T11:29:41;30.70;38.20
80250;DHT22;69561;37.974;23.708;2023-07-20T11:32:07;30.70;38.20
80250;DHT22;69561;37.974;23.708;2023-07-20T11:34:34;30.70;38.30
80250;DHT22;69561;37.974;23.708;2023-07-20T11:37:00;30.70;39.40
80250;DHT22;69561;37.974;23.708;2023-07-20T11:39:26;30.60;38.40
80250;DHT22;69561;37.974;23.708;2023-07-20T11:41:56;30.60;38.40
80250;DHT22;69561;37.974;23.708;2023-07-20T11:44:25;30.60;38.40
80250;DHT22;69561;37.974;23.708;2023-07-20T11:47:09;30.60;38.50
80250;DHT22;69561;37.974;23.708;2023-07-20T11:49:40;30.60;38.60
80250;DHT22;69561;37.974;23.708;2023-07-20T11:52:17;30.60;38.70
80250;DHT22;69561;37.974;23.708;2023-07-20T11:54:43;30.60;38.80
80250;DHT22;69561;37.974;23.708;2023-07-20T11:57:19;30.60;38.90
80250;DHT22;69561;37.974;23.708;2023-07-20T12:00:00;30.50;39.00
80250;DHT22;69561;37.974;23.708;2023-07-20T12:02:28;30.60;39.20
80250;DHT22;69561;37.974;23.708;2023-07-20T12:04:59;30.50;39.30
80250;DHT22;69561;37.974;23.708;2023-07-20T12:07:27;30.50;39.40
80250;DHT22;69561;37.974;23.708;2023-07-20T12:10:12;30.50;39.50
80250;DHT22;69561;37.974;23.708;2023-07-20T12:12:38;30.50;39.40
80250;DHT22;69561;37.974;23.708;2023-07-20T12:15:23;30.50;39.50
80250;DHT22;69561;37.974;23.708;2023-07-20T12:17:53;30.50;39.50
80250;DHT22;69561;37.974;23.708;2023-07-20T12:22:51;30.50;39.50
80250;DHT22;69561;37.974;23.708;2023-07-20T12:25:17;30.40;39.50
80250;DHT22;69561;37.974;23.708;2023-07-20T12:27:46;30.40;39.50
80250;DHT22;69561;37.974;23.708;2023-07-20T12:30:13;30.40;39.50
80250;DHT22;69561;37.974;23.708;2023-07-20T12:32:42;30.40;39.50
80250;DHT22;69561;37.974;23.708;2023-07-20T12:35:08;30.40;39.50
80250;DHT22;69561;37.974;23.708;2023-07-20T12:37:34;30.40;39.50
80250;DHT22;69561;37.974;23.708;2023-07-20T12:40:00;30.40;39.50
80250;DHT22;69561;37.974;23.708;2023-07-20T12:42:28;30.40;39.60
80250;DHT22;69561;37.974;23.708;2023-07-20T12:44:53;30.40;39.50
80250;DHT22;69561;37.974;23.708;2023-07-20T12:47:19;30.30;39.50
80250;DHT22;69561;37.974;23.708;2023-07-20T12:49:45;30.30;39.50
80250;DHT22;69561;37.974;23.708;2023-07-20T12:52:12;30.30;39.60
80250;DHT22;69561;37.974;23.708;2023-07-20T12:54:37;30.30;39.50
80250;DHT22;69561;37.974;23.708;2023-07-20T12:57:03;30.30;39.60
80250;DHT22;69561;37.974;23.708;2023-07-20T12:59:29;30.30;39.50
80250;DHT22;69561;37.974;23.708;2023-07-20T13:01:55;30.30;39.50
80250;DHT22;69561;37.974;23.708;2023-07-20T13:04:20;30.30;39.50
80250;DHT22;69561;37.974;23.708;2023-07-20T13:06:46;30.30;39.50
80250;DHT22;69561;37.974;23.708;2023-07-20T13:09:12;30.30;39.50
80250;DHT22;69561;37.974;23.708;2023-07-20T13:11:37;30.30;39.40
80250;DHT22;69561;37.974;23.708;2023-07-20T13:14:10;30.30;39.50
80250;DHT22;69561;37.974;23.708;2023-07-20T13:16:38;30.30;39.40
80250;DHT22;69561;37.974;23.708;2023-07-20T13:19:04;30.20;39.40
80250;DHT22;69561;37.974;23.708;2023-07-20T13:21:29;30.20;39.40
80250;DHT22;69561;37.974;23.708;2023-07-20T13:23:55;30.20;39.40
80250;DHT22;69561;37.974;23.708;2023-07-20T13:26:21;30.20;39.40
80250;DHT22;69561;37.974;23.708;2023-07-20T13:28:46;30.20;39.40
80250;DHT22;69561;37.974;23.708;2023-07-20T13:31:12;30.20;39.50
80250;DHT22;69561;37.974;23.708;2023-07-20T13:33:38;30.20;39.40
80250;DHT22;69561;37.974;23.708;2023-07-20T13:36:04;30.20;39.40
80250;DHT22;69561;37.974;23.708;2023-07-20T13:38:31;30.20;39.40
80250;DHT22;69561;37.974;23.708;2023-07-20T13:40:57;30.10;39.50
80250;DHT22;69561;37.974;23.708;2023-07-20T13:43:22;30.10;39.50
80250;DHT22;69561;37.974;23.708;2023-07-20T13:45:48;30.10;39.60
80250;DHT22;69561;37.974;23.708;2023-07-20T13:48:14;30.10;39.60
80250;DHT22;69561;37.974;23.708;2023-07-20T13:50:40;30.10;39.60
80250;DHT22;69561;37.974;23.708;2023-07-20T13:53:06;30.10;39.60
80250;DHT22;69561;37.974;23.708;2023-07-20T13:55:31;30.10;39.70
80250;DHT22;69561;37.974;23.708;2023-07-20T13:57:59;30.10;39.70
80250;DHT22;69561;37.974;23.708;2023-07-20T14:00:35;30.10;39.70
80250;DHT22;69561;37.974;23.708;2023-07-20T14:03:01;30.10;39.80
80250;DHT22;69561;37.974;23.708;2023-07-20T14:05:26;30.10;40.80
80250;DHT22;69561;37.974;23.708;2023-07-20T14:07:53;30.10;39.80
80250;DHT22;69561;37.974;23.708;2023-07-20T14:10:19;30.10;39.70
80250;DHT22;69561;37.974;23.708;2023-07-20T14:12:45;30.10;39.80
80250;DHT22;69561;37.974;23.708;2023-07-20T14:15:11;30.10;39.80
80250;DHT22;69561;37.974;23.708;2023-07-20T14:17:37;30.10;39.70
80250;DHT22;69561;37.974;23.708;2023-07-20T14:20:03;30.00;39.70
80250;DHT22;69561;37.974;23.708;2023-07-20T14:22:33;30.00;39.60
80250;DHT22;69561;37.974;23.708;2023-07-20T14:24:59;30.00;39.70
80250;DHT22;69561;37.974;23.708;2023-07-20T14:27:25;30.00;39.70
80250;DHT22;69561;37.974;23.708;2023-07-20T14:29:50;30.00;39.60
80250;DHT22;69561;37.974;23.708;2023-07-20T14:32:16;30.00;39.60
80250;DHT22;69561;37.974;23.708;2023-07-20T14:34:42;30.00;39.60
80250;DHT22;69561;37.974;23.708;2023-07-20T14:37:07;30.00;39.60
80250;DHT22;69561;37.974;23.708;2023-07-20T14:39:33;30.00;39.60
80250;DHT22;69561;37.974;23.708;2023-07-20T14:41:59;30.00;39.60
80250;DHT22;69561;37.974;23.708;2023-07-20T14:44:24;30.00;39.60
80250;DHT22;69561;37.974;23.708;2023-07-20T14:46:50;30.00;39.70
80250;DHT22;69561;37.974;23.708;2023-07-20T14:49:16;30.00;39.70
80250;DHT22;69561;37.974;23.708;2023-07-20T14:51:46;30.00;39.70
80250;DHT22;69561;37.974;23.708;2023-07-20T14:54:12;30.00;39.80
80250;DHT22;69561;37.974;23.708;2023-07-20T14:56:39;30.00;39.80
80250;DHT22;69561;37.974;23.708;2023-07-20T14:59:05;30.00;40.00
80250;DHT22;69561;37.974;23.708;2023-07-20T15:01:34;29.90;40.00
80250;DHT22;69561;37.974;23.708;2023-07-20T15:04:00;30.00;40.20
80250;DHT22;69561;37.974;23.708;2023-07-20T15:06:26;29.90;40.20
80250;DHT22;69561;37.974;23.708;2023-07-20T15:08:55;30.00;40.40
80250;DHT22;69561;37.974;23.708;2023-07-20T15:11:21;29.90;40.40
80250;DHT22;69561;37.974;23.708;2023-07-20T15:13:47;29.90;40.40
80250;DHT22;69561;37.974;23.708;2023-07-20T15:16:12;29.90;40.60
80250;DHT22;69561;37.974;23.708;2023-07-20T15:18:38;29.90;40.70
80250;DHT22;69561;37.974;23.708;2023-07-20T15:21:04;29.90;40.90
80250;DHT22;69561;37.974;23.708;2023-07-20T15:23:29;29.90;40.90
80250;DHT22;69561;37.974;23.708;2023-07-20T15:25:55;29.90;40.80
80250;DHT22;69561;37.974;23.708;2023-07-20T15:28:22;29.90;40.80
80250;DHT22;69561;37.974;23.708;2023-07-20T15:30:47;30.00;40.80
80250;DHT22;69561;37.974;23.708;2023-07-20T15:33:13;30.00;40.90
80250;DHT22;69561;37.974;23.708;2023-07-20T15:35:39;30.00;40.80
80250;DHT22;69561;37.974;23.708;2023-07-20T15:38:05;30.00;40.80
80250;DHT22;69561;37.974;23.708;2023-07-20T15:40:33;30.10;40.90
80250;DHT22;69561;37.974;23.708;2023-07-20T15:42:59;30.10;40.90
80250;DHT22;69561;37.974;23.708;2023-07-20T15:45:28;30.10;41.00